Time,TemperatureF,DewpointF,PressureIn,WindDirection,WindDirectionDegrees,WindSpeedMPH,WindSpeedGustMPH,Humidity,HourlyPrecipIn,Conditions,Clouds,dailyrainin,SolarRadiationWatts/m^2,SoftwareType,DateUTC
2013-05-31 00:02:00,65.0,57.0,-100.00,SE,137,1.0,4.0,75,0.00,,,0.00,0.000000,,2013-05-31 04:02:00,
2013-05-31 00:33:00,63.0,58.0,-100.00,ENE,76,2.0,4.0,85,0.00,,,0.00,0.000000,,2013-05-31 04:33:00,
2013-05-31 00:43:00,63.0,58.0,-100.00,ENE,76,2.0,4.0,85,0.00,,,0.00,0.000000,,2013-05-31 04:43:00,
2013-05-31 00:53:00,63.0,58.0,-100.00,ENE,76,2.0,4.0,85,0.00,,,0.00,0.000000,,2013-05-31 04:53:00,
2013-05-31 01:02:00,63.0,58.0,-100.00,ENE,76,2.0,4.0,85,0.00,,,0.00,0.000000,,2013-05-31 05:02:00,
2013-05-31 01:32:00,61.0,58.0,-100.00,East,96,2.0,4.0,90,0.00,,,0.00,0.000000,,2013-05-31 05:32:00,
2013-05-31 01:42:00,61.0,58.0,-100.00,East,96,2.0,4.0,90,0.00,,,0.00,0.000000,,2013-05-31 05:42:00,
2013-05-31 01:52:00,61.0,58.0,-100.00,East,96,2.0,4.0,90,0.00,,,0.00,0.000000,,2013-05-31 05:52:00,
2013-05-31 02:02:00,61.0,58.0,-100.00,East,96,2.0,4.0,90,0.00,,,0.00,0.000000,,2013-05-31 06:02:00,
2013-05-31 02:32:00,63.0,59.0,-100.00,SE,142,2.0,5.0,87,0.00,,,0.00,0.000000,,2013-05-31 06:32:00,
2013-05-31 02:42:00,63.0,59.0,-100.00,SE,142,2.0,5.0,87,0.00,,,0.00,0.000000,,2013-05-31 06:42:00,
2013-05-31 02:52:00,63.0,59.0,-100.00,SE,142,2.0,5.0,87,0.00,,,0.00,0.000000,,2013-05-31 06:52:00,
2013-05-31 03:02:00,63.0,59.0,-100.00,SE,142,2.0,5.0,87,0.00,,,0.00,0.000000,,2013-05-31 07:02:00,
2013-05-31 03:32:00,60.0,58.0,-100.00,ENE,73,1.0,5.0,93,0.00,,,0.00,0.000000,,2013-05-31 07:32:00,
2013-05-31 03:42:00,60.0,58.0,-100.00,ENE,73,1.0,5.0,93,0.00,,,0.00,0.000000,,2013-05-31 07:42:00,
2013-05-31 03:53:00,60.0,58.0,-100.00,ENE,73,1.0,5.0,93,0.00,,,0.00,0.000000,,2013-05-31 07:53:00,
2013-05-31 04:02:00,60.0,58.0,-100.00,ENE,73,1.0,5.0,93,0.00,,,0.00,0.000000,,2013-05-31 08:02:00,
2013-05-31 04:32:00,59.0,58.0,-100.00,ENE,74,2.0,5.0,96,0.00,,,0.00,0.000000,,2013-05-31 08:32:00,
2013-05-31 04:42:00,59.0,58.0,-100.00,ENE,74,2.0,5.0,96,0.00,,,0.00,0.000000,,2013-05-31 08:42:00,
2013-05-31 04:52:00,59.0,58.0,-100.00,ENE,74,2.0,5.0,96,0.00,,,0.00,0.000000,,2013-05-31 08:52:00,
2013-05-31 05:01:00,59.0,58.0,-100.00,ENE,74,2.0,5.0,96,0.00,,,0.00,0.000000,,2013-05-31 09:01:00,
2013-05-31 05:32:00,58.0,57.0,-100.00,East,85,2.0,5.0,97,0.00,,,0.00,0.000000,,2013-05-31 09:32:00,
2013-05-31 05:43:00,58.0,57.0,-100.00,East,85,2.0,5.0,97,0.00,,,0.00,0.000000,,2013-05-31 09:43:00,
2013-05-31 05:53:00,58.0,57.0,-100.00,East,85,2.0,5.0,97,0.00,,,0.00,0.000000,,2013-05-31 09:53:00,
2013-05-31 06:02:00,58.0,57.0,-100.00,East,85,2.0,5.0,97,0.00,,,0.00,0.000000,,2013-05-31 10:02:00,
2013-05-31 06:33:00,58.0,57.0,-100.00,ESE,116,1.0,6.0,97,0.00,,,0.00,0.000000,,2013-05-31 10:33:00,
2013-05-31 06:42:00,58.0,57.0,-100.00,ESE,116,1.0,6.0,97,0.00,,,0.00,0.000000,,2013-05-31 10:42:00,
2013-05-31 06:52:00,58.0,57.0,-100.00,ESE,116,1.0,6.0,97,0.00,,,0.00,0.000000,,2013-05-31 10:52:00,
2013-05-31 07:02:00,58.0,57.0,-100.00,ESE,116,1.0,6.0,97,0.00,,,0.00,0.000000,,2013-05-31 11:02:00,
2013-05-31 07:32:00,59.0,58.0,-100.00,East,85,2.0,6.0,97,0.00,,,0.00,13.000000,,2013-05-31 11:32:00,
2013-05-31 07:42:00,59.0,58.0,-100.00,East,85,2.0,6.0,97,0.00,,,0.00,13.000000,,2013-05-31 11:42:00,
2013-05-31 07:52:00,59.0,58.0,-100.00,East,85,2.0,6.0,97,0.00,,,0.00,13.000000,,2013-05-31 11:52:00,
2013-05-31 08:01:00,59.0,58.0,-100.00,East,85,2.0,6.0,97,0.00,,,0.00,13.000000,,2013-05-31 12:01:00,
2013-05-31 08:32:00,62.0,60.0,-100.00,ESE,117,1.0,5.0,93,0.00,,,0.00,72.000000,,2013-05-31 12:32:00,
2013-05-31 08:42:00,62.0,60.0,-100.00,ESE,117,1.0,5.0,93,0.00,,,0.00,72.000000,,2013-05-31 12:42:00,
2013-05-31 08:52:00,62.0,60.0,-100.00,ESE,117,1.0,5.0,93,0.00,,,0.00,72.000000,,2013-05-31 12:52:00,
2013-05-31 09:01:00,62.0,60.0,-100.00,ESE,117,1.0,5.0,93,0.00,,,0.00,72.000000,,2013-05-31 13:01:00,
2013-05-31 09:32:00,66.0,63.0,-100.00,East,91,1.0,5.0,89,0.00,,,0.00,140.000000,,2013-05-31 13:32:00,
2013-05-31 09:42:00,66.0,63.0,-100.00,East,91,1.0,5.0,89,0.00,,,0.00,140.000000,,2013-05-31 13:42:00,
2013-05-31 09:52:00,66.0,63.0,-100.00,East,91,1.0,5.0,89,0.00,,,0.00,140.000000,,2013-05-31 13:52:00,
2013-05-31 10:02:00,66.0,63.0,-100.00,East,91,1.0,5.0,89,0.00,,,0.00,140.000000,,2013-05-31 14:02:00,
2013-05-31 10:32:00,74.0,61.0,-100.00,SW,214,4.0,10.0,63,0.00,,,0.00,398.000000,,2013-05-31 14:32:00,
2013-05-31 10:42:00,74.0,61.0,-100.00,SW,214,4.0,10.0,63,0.00,,,0.00,398.000000,,2013-05-31 14:42:00,
2013-05-31 10:52:00,74.0,61.0,-100.00,SW,214,4.0,10.0,63,0.00,,,0.00,398.000000,,2013-05-31 14:52:00,
2013-05-31 11:01:00,74.0,61.0,-100.00,SW,214,4.0,10.0,63,0.00,,,0.00,398.000000,,2013-05-31 15:01:00,
2013-05-31 11:33:00,77.0,59.0,-100.00,SSW,194,4.0,15.0,53,0.00,,,0.00,542.000000,,2013-05-31 15:33:00,
2013-05-31 11:43:00,77.0,59.0,-100.00,SSW,194,4.0,15.0,53,0.00,,,0.00,542.000000,,2013-05-31 15:43:00,
2013-05-31 11:53:00,77.0,59.0,-100.00,SSW,194,4.0,15.0,53,0.00,,,0.00,542.000000,,2013-05-31 15:53:00,
2013-05-31 12:03:00,77.0,59.0,-100.00,SSW,194,4.0,15.0,53,0.00,,,0.00,542.000000,,2013-05-31 16:03:00,
2013-05-31 12:33:00,80.0,58.0,-100.00,SW,226,4.0,12.0,47,0.00,,,0.00,915.000000,,2013-05-31 16:33:00,
2013-05-31 12:42:00,80.0,58.0,-100.00,SW,226,4.0,12.0,47,0.00,,,0.00,915.000000,,2013-05-31 16:42:00,
2013-05-31 12:53:00,80.0,58.0,-100.00,SW,226,4.0,12.0,47,0.00,,,0.00,915.000000,,2013-05-31 16:53:00,
2013-05-31 13:02:00,80.0,58.0,-100.00,SW,226,4.0,12.0,47,0.00,,,0.00,915.000000,,2013-05-31 17:02:00,
2013-05-31 13:32:00,83.0,58.0,-100.00,SSW,197,5.0,11.0,43,0.00,,,0.00,1099.000000,,2013-05-31 17:32:00,
2013-05-31 13:42:00,83.0,58.0,-100.00,SSW,197,5.0,11.0,43,0.00,,,0.00,1099.000000,,2013-05-31 17:42:00,
2013-05-31 13:52:00,83.0,58.0,-100.00,SSW,197,5.0,11.0,43,0.00,,,0.00,1099.000000,,2013-05-31 17:52:00,
2013-05-31 14:02:00,83.0,58.0,-100.00,SSW,197,5.0,11.0,43,0.00,,,0.00,1099.000000,,2013-05-31 18:02:00,
2013-05-31 14:32:00,83.0,57.0,-100.00,SW,219,5.0,16.0,41,0.00,,,0.00,1133.000000,,2013-05-31 18:32:00,
2013-05-31 14:42:00,83.0,57.0,-100.00,SW,219,5.0,16.0,41,0.00,,,0.00,1133.000000,,2013-05-31 18:42:00,
2013-05-31 14:52:00,83.0,57.0,-100.00,SW,219,5.0,16.0,41,0.00,,,0.00,1133.000000,,2013-05-31 18:52:00,
2013-05-31 15:02:00,83.0,57.0,-100.00,SW,219,5.0,16.0,41,0.00,,,0.00,1133.000000,,2013-05-31 19:02:00,
2013-05-31 15:32:00,85.0,59.0,-100.00,SW,236,6.0,14.0,42,0.00,,,0.00,1114.000000,,2013-05-31 19:32:00,
2013-05-31 15:42:00,85.0,59.0,-100.00,SW,236,6.0,14.0,42,0.00,,,0.00,1114.000000,,2013-05-31 19:42:00,
2013-05-31 15:52:00,85.0,59.0,-100.00,SW,236,6.0,14.0,42,0.00,,,0.00,1114.000000,,2013-05-31 19:52:00,
2013-05-31 16:02:00,85.0,59.0,-100.00,SW,236,6.0,14.0,42,0.00,,,0.00,1114.000000,,2013-05-31 20:02:00,
2013-05-31 16:32:00,84.0,58.0,-100.00,SW,234,4.0,13.0,42,0.00,,,0.00,951.000000,,2013-05-31 20:32:00,
2013-05-31 16:42:00,84.0,58.0,-100.00,SW,234,4.0,13.0,42,0.00,,,0.00,951.000000,,2013-05-31 20:42:00,
2013-05-31 16:52:00,84.0,58.0,-100.00,SW,234,4.0,13.0,42,0.00,,,0.00,951.000000,,2013-05-31 20:52:00,
2013-05-31 17:01:00,84.0,58.0,-100.00,SW,234,4.0,13.0,42,0.00,,,0.00,951.000000,,2013-05-31 21:01:00,
2013-05-31 17:33:00,83.0,57.0,-100.00,WSW,241,7.0,12.0,41,0.00,,,0.00,847.000000,,2013-05-31 21:33:00,
2013-05-31 17:43:00,83.0,57.0,-100.00,WSW,241,7.0,12.0,41,0.00,,,0.00,847.000000,,2013-05-31 21:43:00,
2013-05-31 17:54:00,83.0,57.0,-100.00,WSW,241,7.0,12.0,41,0.00,,,0.00,847.000000,,2013-05-31 21:54:00,
2013-05-31 18:02:00,83.0,57.0,-100.00,WSW,241,7.0,12.0,41,0.00,,,0.00,847.000000,,2013-05-31 22:02:00,
2013-05-31 18:33:00,82.0,57.0,-100.00,WSW,246,5.0,14.0,43,0.00,,,0.00,549.000000,,2013-05-31 22:33:00,
2013-05-31 18:42:00,82.0,57.0,-100.00,WSW,246,5.0,14.0,43,0.00,,,0.00,549.000000,,2013-05-31 22:42:00,
2013-05-31 18:53:00,82.0,57.0,-100.00,WSW,246,5.0,14.0,43,0.00,,,0.00,549.000000,,2013-05-31 22:53:00,
2013-05-31 19:02:00,82.0,57.0,-100.00,WSW,246,5.0,14.0,43,0.00,,,0.00,549.000000,,2013-05-31 23:02:00,
2013-05-31 19:32:00,81.0,59.0,-100.00,SW,216,4.0,9.0,47,0.00,,,0.00,359.000000,,2013-05-31 23:32:00,
2013-05-31 19:42:00,81.0,59.0,-100.00,SW,216,4.0,9.0,47,0.00,,,0.00,359.000000,,2013-05-31 23:42:00,
2013-05-31 19:52:00,81.0,59.0,-100.00,SW,216,4.0,9.0,47,0.00,,,0.00,359.000000,,2013-05-31 23:52:00,
2013-05-31 20:01:00,81.0,59.0,-100.00,SW,216,4.0,9.0,47,0.00,,,0.00,359.000000,,2013-06-01 00:01:00,
2013-05-31 20:22:00,76.0,59.0,-100.00,SW,230,4.0,9.0,56,0.00,,,0.00,72.000000,,2013-06-01 00:22:00,
2013-05-31 20:32:00,76.0,59.0,-100.00,SW,230,4.0,9.0,56,0.00,,,0.00,72.000000,,2013-06-01 00:32:00,
2013-05-31 20:42:00,76.0,59.0,-100.00,SW,230,4.0,9.0,56,0.00,,,0.00,72.000000,,2013-06-01 00:42:00,
2013-05-31 20:52:00,76.0,59.0,-100.00,SW,230,4.0,9.0,56,0.00,,,0.00,72.000000,,2013-06-01 00:52:00,
2013-05-31 21:01:00,76.0,59.0,-100.00,SW,230,4.0,9.0,56,0.00,,,0.00,72.000000,,2013-06-01 01:01:00,
2013-05-31 21:32:00,73.0,58.0,-100.00,SSW,211,3.0,9.0,60,0.00,,,0.00,15.000000,,2013-06-01 01:32:00,
2013-05-31 21:42:00,73.0,58.0,-100.00,SSW,211,3.0,9.0,60,0.00,,,0.00,15.000000,,2013-06-01 01:42:00,
2013-05-31 21:52:00,73.0,58.0,-100.00,SSW,211,3.0,9.0,60,0.00,,,0.00,15.000000,,2013-06-01 01:52:00,
2013-05-31 22:02:00,73.0,58.0,-100.00,SSW,211,3.0,9.0,60,0.00,,,0.00,15.000000,,2013-06-01 02:02:00,
2013-05-31 22:32:00,69.0,59.0,-100.00,SSE,162,1.0,5.0,70,0.00,,,0.00,0.000000,,2013-06-01 02:32:00,
2013-05-31 22:42:00,69.0,59.0,-100.00,SSE,162,1.0,5.0,70,0.00,,,0.00,0.000000,,2013-06-01 02:42:00,
2013-05-31 22:52:00,69.0,59.0,-100.00,SSE,162,1.0,5.0,70,0.00,,,0.00,0.000000,,2013-06-01 02:52:00,
2013-05-31 23:02:00,69.0,59.0,-100.00,SSE,162,1.0,5.0,70,0.00,,,0.00,0.000000,,2013-06-01 03:02:00,
2013-05-31 23:33:00,66.0,60.0,-100.00,SE,127,1.0,3.0,80,0.00,,,0.00,0.000000,,2013-06-01 03:33:00,
2013-05-31 23:43:00,66.0,60.0,-100.00,SE,127,1.0,3.0,80,0.00,,,0.00,0.000000,,2013-06-01 03:43:00,
2013-05-31 23:53:00,66.0,60.0,-100.00,SE,127,1.0,3.0,80,0.00,,,0.00,0.000000,,2013-06-01 03:53:00,